Lexington, KY (40575)

5:19 PM EDT on August 21, 2014 (GMT -0400)
Eastland | Change Station
CLOSE
Current Station
Personal Weather Station
Location: Lexington, KY
Elevation: 988 ft
Nearby Weather Stations

Elev 988 ft 38.06 °N, 84.43 °W | Updated 14 minutes ago

Clear
Clear
86.0 °F
Feels Like 98 °F
N
4.2
Wind Variable Wind from SSW

Today
High -- | Low -- °F
--% Chance of Precip.
Yesterday
High -- | Low -- °F
Precip. -- in
6:58 AM 8:23 PM
Waning Crescent, 12% visible
Pressure 30.03 in
Visibility 10.0 miles
Clouds Clear
Heat Index 98 °F
Dew Point 78 °F
Humidity 77%
Rainfall 0.00 in
Snow Depth Not available.
UV 5 out of 12
Pollen 9.30 out of 12
PM2.5 Moderate
Flu Activity Not available.
METAR KLEX 212054Z 24004KT 10SM CLR 30/23 A3006 RMK AO2 LTG DSNT SE SLP169 60001 T03000233 58016

More Conditions Fewer Conditions

Pressure 30.03 in
Visibility 10.0 miles
Clouds Clear
Heat Index 98 °F
Dew Point 78 °F
Humidity 77%
Rainfall 0.00 in
Snow Depth Not available.
UV 5 out of 12
Pollen 9.30 out of 12
PM2.5 Moderate
Flu Activity Not available.
METAR KLEX 212054Z 24004KT 10SM CLR 30/23 A3006 RMK AO2 LTG DSNT SE SLP169 60001 T03000233 58016

More Conditions Fewer Conditions

10-Day Weather Forecast

Almanac

Astronomy

Aug. 21, 2014 Rise Set
Actual Time 6:58 AM EDT 8:23 PM EDT
Civil Twilight 6:30 AM EDT 8:50 PM EDT
Nautical Twilight 5:57 AM EDT 9:24 PM EDT
Astronomical Twilight 5:22 AM EDT 9:58 PM EDT
Moon 3:29 AM EDT 5:50 PM EDT
Length of Visible Light 14h 20m
Length of Day
13h 25m
Tomorrow will be 2m 16s shorter.
Waning Crescent, 12% of the Moon is Illuminated
Today
Waning Crescent
Aug 25
New
Sep 2
First Quarter
Sep 8
Full
Sep 15
Last Quarter

Today's Extremes

State Highs State Lows

Community

WunderPhotos

Upload Photos

1,746,019 photos uploaded!

WunderBlogs® & News

Nearby

Air Quality

  Air Quality AQ Index Pollutant
Yesterday Moderate
PM2.5
Yesterday Good
OZONE
Current Moderate
PM2.5
Thursday Good
OZONE
Friday Good
OZONE

Snow Depth

Station Depth Elevation
No new snow has been reported.

Earthquake Activity

City Distance Mag. Time & Date
No recent earthquake activity has been reported nearby.
Minimum magnitude displayed is 2.5.

Coastal Water Temperatures

Place Temperature
No Stations Reporting

Nearby Weather Stations